createdAt,value
2023-05-13T00:00:46.816Z,4.00
2023-05-13T00:03:14.380Z,4.10
2023-05-13T00:05:41.656Z,3.47
2023-05-13T00:08:09.426Z,3.67
2023-05-13T00:10:36.791Z,3.53
2023-05-13T00:13:04.326Z,4.22
2023-05-13T00:15:31.574Z,3.53
2023-05-13T00:17:59.082Z,4.40
2023-05-13T00:20:26.310Z,3.72
2023-05-13T00:22:53.922Z,6.13
2023-05-13T00:25:21.254Z,4.32
2023-05-13T00:27:48.996Z,4.00
2023-05-13T00:30:16.606Z,3.80
2023-05-13T00:32:44.092Z,4.72
2023-05-13T00:35:11.388Z,4.55
2023-05-13T00:37:39.040Z,4.38
2023-05-13T00:40:12.850Z,4.57
2023-05-13T00:42:40.443Z,4.45
2023-05-13T00:45:08.047Z,4.45
2023-05-13T00:47:35.762Z,4.22
2023-05-13T00:50:03.642Z,4.88
2023-05-13T00:52:31.926Z,4.00
2023-05-13T00:54:59.138Z,3.85
2023-05-13T00:57:26.666Z,4.70
2023-05-13T00:59:54.047Z,4.32
2023-05-13T01:02:32.979Z,4.40
2023-05-13T01:05:17.196Z,3.75
2023-05-13T01:07:50.514Z,3.85
2023-05-13T01:10:42.823Z,3.78
2023-05-13T01:13:13.591Z,3.40
2023-05-13T01:15:47.986Z,4.32
2023-05-13T01:18:20.667Z,3.80
2023-05-13T01:20:48.068Z,3.58
2023-05-13T01:23:15.926Z,3.72
2023-05-13T01:25:43.305Z,3.85
2023-05-13T01:28:11.490Z,3.72
2023-05-13T01:30:41.580Z,3.92
2023-05-13T01:33:11.294Z,3.83
2023-05-13T01:35:39.055Z,4.47
2023-05-13T01:38:08.765Z,4.40
2023-05-13T01:40:37.413Z,5.95
2023-05-13T01:43:07.437Z,5.30
2023-05-13T01:45:37.096Z,4.70
2023-05-13T01:48:05.237Z,4.18
2023-05-13T01:50:47.598Z,4.28
2023-05-13T01:53:15.101Z,4.18
2023-05-13T01:55:42.331Z,4.05
2023-05-13T01:58:10.619Z,3.92
2023-05-13T02:00:37.984Z,3.30
2023-05-13T02:03:05.836Z,3.13
2023-05-13T02:05:33.388Z,3.50
2023-05-13T02:08:06.587Z,3.30
2023-05-13T02:10:33.871Z,3.03
2023-05-13T02:13:01.856Z,3.33
2023-05-13T02:15:29.111Z,8.02
2023-05-13T02:17:57.105Z,6.03
2023-05-13T02:20:24.471Z,4.70
2023-05-13T02:22:52.285Z,4.72
2023-05-13T02:25:19.714Z,4.35
2023-05-13T02:27:47.421Z,4.88
2023-05-13T02:30:14.742Z,4.25
2023-05-13T02:32:44.051Z,3.80
2023-05-13T02:35:11.419Z,6.47
2023-05-13T02:37:39.017Z,5.13
2023-05-13T02:40:06.940Z,4.00
2023-05-13T02:42:34.554Z,4.15
2023-05-13T02:45:01.949Z,3.97
2023-05-13T02:47:35.591Z,4.43
2023-05-13T02:50:09.972Z,4.43
2023-05-13T02:52:39.392Z,4.25
2023-05-13T02:55:08.327Z,4.50
2023-05-13T02:57:37.914Z,3.95
2023-05-13T03:00:06.150Z,4.47
2023-05-13T03:02:35.155Z,4.90
2023-05-13T03:05:02.484Z,5.53
2023-05-13T03:07:30.082Z,5.32
2023-05-13T03:09:58.938Z,5.38
2023-05-13T03:12:26.550Z,5.15
2023-05-13T03:14:53.768Z,6.57
2023-05-13T03:17:21.374Z,4.68
2023-05-13T03:19:49.478Z,4.80
2023-05-13T03:22:17.146Z,4.35
2023-05-13T03:24:44.803Z,4.82
2023-05-13T03:27:13.400Z,4.50
2023-05-13T03:29:41.034Z,4.40
2023-05-13T03:32:09.101Z,4.07
2023-05-13T03:34:37.884Z,4.20
2023-05-13T03:37:05.666Z,3.83
2023-05-13T03:39:32.852Z,4.40
2023-05-13T03:42:00.437Z,4.20
2023-05-13T03:44:27.939Z,4.80
2023-05-13T03:46:55.608Z,4.78
2023-05-13T03:49:22.928Z,4.18
2023-05-13T03:51:50.395Z,4.43
2023-05-13T03:54:17.769Z,4.53
2023-05-13T03:56:46.085Z,3.97
2023-05-13T03:59:13.264Z,4.32
2023-05-13T04:01:41.055Z,4.43
2023-05-13T04:04:09.394Z,4.93
2023-05-13T04:06:36.974Z,4.72
2023-05-13T04:09:04.810Z,5.00
2023-05-13T04:11:32.803Z,5.72
2023-05-13T04:14:00.186Z,4.95
2023-05-13T04:16:28.011Z,4.88
2023-05-13T04:18:55.391Z,5.35
2023-05-13T04:21:23.024Z,6.22
2023-05-13T04:23:50.308Z,5.25
2023-05-13T04:26:17.863Z,4.80
2023-05-13T04:28:45.517Z,5.05
2023-05-13T04:31:13.569Z,5.30
2023-05-13T04:33:41.105Z,4.38
2023-05-13T04:36:09.018Z,4.80
2023-05-13T04:38:36.442Z,5.28
2023-05-13T04:41:04.646Z,5.45
2023-05-13T04:43:39.661Z,5.30
2023-05-13T04:46:07.217Z,5.07
2023-05-13T04:48:34.482Z,5.45
2023-05-13T04:51:02.417Z,5.50
2023-05-13T04:53:30.765Z,5.07
2023-05-13T04:56:01.737Z,5.60
2023-05-13T04:58:30.636Z,5.40
2023-05-13T05:00:58.340Z,5.10
2023-05-13T05:03:25.928Z,5.57
2023-05-13T05:05:54.046Z,5.63
2023-05-13T05:08:22.285Z,5.90
2023-05-13T05:10:51.478Z,5.60
2023-05-13T05:13:19.662Z,5.05
2023-05-13T05:15:47.172Z,5.15
2023-05-13T05:18:15.406Z,5.60
2023-05-13T05:20:46.172Z,5.13
2023-05-13T05:23:16.341Z,4.53
2023-05-13T05:25:44.316Z,4.75
2023-05-13T05:28:12.443Z,4.40
2023-05-13T05:30:43.035Z,4.90
2023-05-13T05:33:20.407Z,4.90
2023-05-13T05:35:48.554Z,4.82
2023-05-13T05:38:18.003Z,4.30
2023-05-13T05:40:47.166Z,4.90
2023-05-13T05:43:16.460Z,4.85
2023-05-13T05:45:44.280Z,4.65
2023-05-13T05:48:15.849Z,4.70
2023-05-13T05:50:43.983Z,4.80
2023-05-13T05:53:15.595Z,4.88
2023-05-13T05:55:43.211Z,4.25
2023-05-13T05:58:14.504Z,4.72
2023-05-13T06:00:42.086Z,4.18
2023-05-13T06:03:09.819Z,4.45
2023-05-13T06:05:39.577Z,4.38
2023-05-13T06:08:06.991Z,4.57
2023-05-13T06:10:35.339Z,4.65
2023-05-13T06:13:02.559Z,4.75
2023-05-13T06:15:30.752Z,4.95
2023-05-13T06:17:58.151Z,5.00
2023-05-13T06:20:26.112Z,4.15
2023-05-13T06:22:53.370Z,3.95
2023-05-13T06:25:20.998Z,4.45
2023-05-13T06:27:48.227Z,4.40
2023-05-13T06:30:16.183Z,4.13
2023-05-13T06:32:53.575Z,4.13
2023-05-13T06:35:28.759Z,3.83
2023-05-13T06:37:56.170Z,3.92
2023-05-13T06:40:23.931Z,3.97
2023-05-13T06:42:51.893Z,4.38
2023-05-13T06:45:29.052Z,4.15
2023-05-13T06:47:56.759Z,4.28
2023-05-13T06:50:24.468Z,4.72
2023-05-13T06:52:52.544Z,3.95
2023-05-13T06:55:20.188Z,4.00
2023-05-13T06:57:47.553Z,3.75
2023-05-13T07:00:16.029Z,3.60
2023-05-13T07:02:43.862Z,3.53
2023-05-13T07:05:12.202Z,4.20
2023-05-13T07:07:39.503Z,4.20
2023-05-13T07:10:07.243Z,4.05
2023-05-13T07:12:34.490Z,4.40
2023-05-13T07:15:02.122Z,4.63
2023-05-13T07:17:31.371Z,4.10
2023-05-13T07:19:59.398Z,3.83
2023-05-13T07:22:27.955Z,4.45
2023-05-13T07:24:56.462Z,3.78
2023-05-13T07:27:23.790Z,3.30
2023-05-13T07:29:51.294Z,3.53
2023-05-13T07:32:18.740Z,4.03
2023-05-13T07:34:46.431Z,3.42
2023-05-13T07:37:13.748Z,4.03
2023-05-13T07:39:41.337Z,3.58
2023-05-13T07:42:08.565Z,4.55
2023-05-13T07:44:36.091Z,3.20
2023-05-13T07:47:03.368Z,3.15
2023-05-13T07:49:31.045Z,3.60
2023-05-13T07:51:58.278Z,4.35
2023-05-13T07:54:25.781Z,3.80
2023-05-13T07:56:53.049Z,3.83
2023-05-13T07:59:20.650Z,4.28
2023-05-13T08:01:47.948Z,3.55
2023-05-13T08:04:15.800Z,4.18
2023-05-13T08:06:43.223Z,3.88
2023-05-13T08:09:12.344Z,3.38
2023-05-13T08:11:39.646Z,3.40
2023-05-13T08:14:07.293Z,3.58
2023-05-13T08:16:36.511Z,2.63
2023-05-13T08:19:04.919Z,3.08
2023-05-13T08:21:32.801Z,3.08
2023-05-13T08:24:00.384Z,3.10
2023-05-13T08:26:27.853Z,3.15
2023-05-13T08:28:57.231Z,3.25
2023-05-13T08:31:27.699Z,3.83
2023-05-13T08:33:55.324Z,4.07
2023-05-13T08:36:23.044Z,3.53
2023-05-13T08:38:50.522Z,3.85
2023-05-13T08:41:20.476Z,3.83
2023-05-13T08:43:50.538Z,3.63
2023-05-13T08:46:19.508Z,3.42
2023-05-13T08:48:48.047Z,3.00
2023-05-13T08:51:15.301Z,2.75
2023-05-13T08:53:44.463Z,3.70
2023-05-13T08:56:12.520Z,3.30
2023-05-13T08:58:40.052Z,3.25
2023-05-13T09:01:07.876Z,3.17
2023-05-13T09:03:41.386Z,2.90
2023-05-13T09:06:08.678Z,3.10
2023-05-13T09:08:36.580Z,3.15
2023-05-13T09:11:04.092Z,2.22
2023-05-13T09:13:31.634Z,2.50
2023-05-13T09:15:58.866Z,2.78
2023-05-13T09:18:32.005Z,3.10
2023-05-13T09:21:23.719Z,2.78
2023-05-13T09:23:56.469Z,2.72
2023-05-13T09:26:30.388Z,3.28
2023-05-13T09:29:18.060Z,2.70
2023-05-13T09:31:47.087Z,2.50
2023-05-13T09:34:21.710Z,3.00
2023-05-13T09:36:58.532Z,2.83
2023-05-13T09:39:26.887Z,3.63
2023-05-13T09:41:54.331Z,2.78
2023-05-13T09:44:22.144Z,2.80
2023-05-13T09:46:51.978Z,2.58
2023-05-13T09:49:23.351Z,3.27
2023-05-13T09:51:50.871Z,3.42
2023-05-13T09:54:19.069Z,2.88
2023-05-13T09:56:46.332Z,2.70
2023-05-13T09:59:16.227Z,2.42
2023-05-13T10:01:44.700Z,3.03
2023-05-13T10:04:12.941Z,2.40
2023-05-13T10:06:40.714Z,2.88
2023-05-13T10:09:10.489Z,2.53
2023-05-13T10:11:38.339Z,2.90
2023-05-13T10:14:07.159Z,3.03
2023-05-13T10:16:34.745Z,2.50
2023-05-13T10:19:04.343Z,3.22
2023-05-13T10:21:32.837Z,3.17
2023-05-13T10:24:02.061Z,2.80
2023-05-13T10:26:30.156Z,2.50
2023-05-13T10:28:58.226Z,2.90
2023-05-13T10:31:26.929Z,2.40
2023-05-13T10:33:54.757Z,7.18
2023-05-13T10:36:43.045Z,2.60
2023-05-13T10:39:26.194Z,2.78
2023-05-13T10:42:12.236Z,2.83
2023-05-13T10:44:40.063Z,2.92
2023-05-13T10:47:09.830Z,2.58
2023-05-13T10:49:37.638Z,2.20
2023-05-13T10:52:11.565Z,2.63
2023-05-13T10:54:42.286Z,2.40
2023-05-13T10:57:09.809Z,2.45
2023-05-13T10:59:38.943Z,2.33
2023-05-13T11:02:25.208Z,2.45
2023-05-13T11:05:00.494Z,2.38
2023-05-13T11:07:31.153Z,2.25
2023-05-13T11:10:00.001Z,2.65
2023-05-13T11:12:27.194Z,2.30
2023-05-13T11:14:57.748Z,2.10
2023-05-13T11:17:25.059Z,2.13
2023-05-13T11:19:53.369Z,2.45
2023-05-13T11:22:24.229Z,2.47
2023-05-13T11:25:04.293Z,2.47
2023-05-13T11:27:37.770Z,2.50
2023-05-13T11:30:26.456Z,2.55
2023-05-13T11:32:58.515Z,1.98
2023-05-13T11:35:27.567Z,2.20
2023-05-13T11:38:00.408Z,2.00
2023-05-13T11:40:33.664Z,1.90
2023-05-13T11:43:02.020Z,2.30
2023-05-13T11:45:31.681Z,2.42
2023-05-13T11:47:59.221Z,2.60
2023-05-13T11:50:32.528Z,1.65
2023-05-13T11:53:01.738Z,2.08
2023-05-13T11:55:30.353Z,2.08
2023-05-13T11:57:58.898Z,2.47
2023-05-13T12:00:34.441Z,2.38
2023-05-13T12:03:09.368Z,2.15
2023-05-13T12:05:37.190Z,2.28
2023-05-13T12:08:04.807Z,2.15
2023-05-13T12:10:32.302Z,2.17
2023-05-13T12:12:59.721Z,2.53
2023-05-13T12:15:27.940Z,2.33
2023-05-13T12:17:55.490Z,2.47
2023-05-13T12:20:24.442Z,2.60
2023-05-13T12:22:53.931Z,2.13
2023-05-13T12:25:45.295Z,2.63
2023-05-13T12:28:17.288Z,2.42
2023-05-13T12:30:52.277Z,2.97
2023-05-13T12:33:21.666Z,3.28
2023-05-13T12:35:51.858Z,3.25
2023-05-13T12:38:24.599Z,2.90
2023-05-13T12:40:53.311Z,2.70
2023-05-13T12:43:21.824Z,3.10
2023-05-13T12:45:54.892Z,3.25
2023-05-13T12:48:26.068Z,2.75
2023-05-13T12:50:53.618Z,2.38
2023-05-13T12:53:21.384Z,2.85
2023-05-13T12:55:48.913Z,2.58
2023-05-13T12:58:16.275Z,2.75
2023-05-13T13:00:43.809Z,2.50
2023-05-13T13:03:11.213Z,2.85
2023-05-13T13:05:38.923Z,2.78
2023-05-13T13:08:06.276Z,2.92
2023-05-13T13:10:33.978Z,3.15
2023-05-13T13:13:01.549Z,3.90
2023-05-13T13:15:29.097Z,3.60
2023-05-13T13:17:56.347Z,3.38
2023-05-13T13:20:23.879Z,3.45
2023-05-13T13:22:51.059Z,3.63
2023-05-13T13:25:18.661Z,3.58
2023-05-13T13:27:45.806Z,3.28
2023-05-13T13:30:14.594Z,3.67
2023-05-13T13:32:41.845Z,3.80
2023-05-13T13:35:10.078Z,3.97
2023-05-13T13:37:38.022Z,3.20
2023-05-13T13:40:06.437Z,2.95
2023-05-13T13:42:44.069Z,2.40
2023-05-13T13:45:13.956Z,2.67
2023-05-13T13:47:41.872Z,3.60
2023-05-13T13:50:09.989Z,2.60
2023-05-13T13:52:37.257Z,2.75
2023-05-13T13:55:05.170Z,3.17
2023-05-13T13:57:32.371Z,2.97
2023-05-13T14:00:00.050Z,3.08
2023-05-13T14:02:27.395Z,3.05
2023-05-13T14:04:55.152Z,3.53
2023-05-13T14:07:22.550Z,2.72
2023-05-13T14:09:50.248Z,2.75
2023-05-13T14:12:17.571Z,2.97
2023-05-13T14:14:45.153Z,2.50
2023-05-13T14:17:14.330Z,2.13
2023-05-13T14:19:42.524Z,2.80
2023-05-13T14:22:09.669Z,2.50
2023-05-13T14:24:37.204Z,2.90
2023-05-13T14:27:05.161Z,2.70
2023-05-13T14:29:33.178Z,2.65
2023-05-13T14:32:02.130Z,2.38
2023-05-13T14:34:29.763Z,2.28
2023-05-13T14:36:56.940Z,2.53
2023-05-13T14:39:24.715Z,2.60
2023-05-13T14:41:51.897Z,2.40
2023-05-13T14:44:19.718Z,2.45
2023-05-13T14:46:46.963Z,2.58
2023-05-13T14:49:14.562Z,3.10
2023-05-13T14:51:41.926Z,2.80
2023-05-13T14:54:09.577Z,4.75
2023-05-13T14:56:37.936Z,2.80
2023-05-13T14:59:05.418Z,2.30
2023-05-13T15:01:32.815Z,2.40
2023-05-13T15:04:00.515Z,2.85
2023-05-13T15:06:29.208Z,3.00
2023-05-13T15:08:57.500Z,3.90
2023-05-13T15:11:27.752Z,3.20
2023-05-13T15:13:55.450Z,2.97
2023-05-13T15:16:22.850Z,2.80
2023-05-13T15:18:50.842Z,3.00
2023-05-13T15:21:18.177Z,3.50
2023-05-13T15:23:45.802Z,3.22
2023-05-13T15:26:12.980Z,3.00
2023-05-13T15:28:40.474Z,3.38
2023-05-13T15:31:07.891Z,3.03
2023-05-13T15:33:35.523Z,3.33
2023-05-13T15:36:02.813Z,3.15
2023-05-13T15:38:30.686Z,2.58
2023-05-13T15:40:57.862Z,3.10
2023-05-13T15:43:25.405Z,3.20
2023-05-13T15:45:53.665Z,2.83
2023-05-13T15:48:21.261Z,3.42
2023-05-13T15:50:48.537Z,2.70
2023-05-13T15:53:16.137Z,4.35
2023-05-13T15:55:43.459Z,2.72
2023-05-13T15:58:10.929Z,3.83
2023-05-13T16:00:38.188Z,3.33
2023-05-13T16:03:05.916Z,3.60
2023-05-13T16:05:33.341Z,3.63
2023-05-13T16:08:01.125Z,3.28
2023-05-13T16:10:28.333Z,3.70
2023-05-13T16:12:55.906Z,2.83
2023-05-13T16:15:23.198Z,3.92
2023-05-13T16:17:50.698Z,3.47
2023-05-13T16:20:18.043Z,3.83
2023-05-13T16:22:45.618Z,2.97
2023-05-13T16:25:12.862Z,3.55
2023-05-13T16:27:43.120Z,3.50
2023-05-13T16:30:10.646Z,3.45
2023-05-13T16:32:38.314Z,3.08
2023-05-13T16:35:06.202Z,3.53
2023-05-13T16:37:36.711Z,3.33
2023-05-13T16:40:05.003Z,3.38
2023-05-13T16:42:32.462Z,3.22
2023-05-13T16:44:59.627Z,3.05
2023-05-13T16:47:27.275Z,3.35
2023-05-13T16:49:56.185Z,3.83
2023-05-13T16:52:24.426Z,3.47
2023-05-13T16:54:52.381Z,4.47
2023-05-13T16:57:22.322Z,3.40
2023-05-13T16:59:49.567Z,3.60
2023-05-13T17:02:17.120Z,3.13
2023-05-13T17:04:44.364Z,3.47
2023-05-13T17:07:11.843Z,3.47
2023-05-13T17:09:38.999Z,3.72
2023-05-13T17:12:06.824Z,3.53
2023-05-13T17:14:34.054Z,3.15
2023-05-13T17:17:03.211Z,3.17
2023-05-13T17:19:30.661Z,3.40
2023-05-13T17:21:58.151Z,2.97
2023-05-13T17:24:29.280Z,3.42
2023-05-13T17:26:56.898Z,3.70
2023-05-13T17:29:25.655Z,3.78
2023-05-13T17:31:53.313Z,3.70
2023-05-13T17:34:20.778Z,3.45
2023-05-13T17:36:50.084Z,2.70
2023-05-13T17:39:17.535Z,2.88
2023-05-13T17:41:45.018Z,2.65
2023-05-13T17:44:12.346Z,3.05
2023-05-13T17:46:40.057Z,2.95
2023-05-13T17:49:07.333Z,3.70
2023-05-13T17:51:34.951Z,3.63
2023-05-13T17:54:02.148Z,3.70
2023-05-13T17:56:29.878Z,3.38
2023-05-13T17:58:57.017Z,2.30
2023-05-13T18:01:24.549Z,2.17
2023-05-13T18:03:51.733Z,2.38
2023-05-13T18:06:19.243Z,2.08
2023-05-13T18:08:46.475Z,2.65
2023-05-13T18:11:13.980Z,2.17
2023-05-13T18:13:41.114Z,2.72
2023-05-13T18:16:10.321Z,2.65
2023-05-13T18:18:37.610Z,2.85
2023-05-13T18:21:05.193Z,2.13
2023-05-13T18:23:32.824Z,2.90
2023-05-13T18:26:00.486Z,2.60
2023-05-13T18:28:27.941Z,2.70
2023-05-13T18:30:55.684Z,2.42
2023-05-13T18:33:22.956Z,2.67
2023-05-13T18:35:50.468Z,3.00
2023-05-13T18:38:17.657Z,2.58
2023-05-13T18:40:45.326Z,2.55
2023-05-13T18:43:12.878Z,2.85
2023-05-13T18:45:40.406Z,2.80
2023-05-13T18:48:07.742Z,2.88
2023-05-13T18:50:35.447Z,3.33
2023-05-13T18:53:02.670Z,2.90
2023-05-13T18:55:30.135Z,3.92
2023-05-13T18:57:57.352Z,2.92
2023-05-13T19:00:25.190Z,2.85
2023-05-13T19:02:52.546Z,2.80
2023-05-13T19:05:20.586Z,2.78
2023-05-13T19:07:47.912Z,2.72
2023-05-13T19:10:15.863Z,2.70
2023-05-13T19:12:43.048Z,2.80
2023-05-13T19:15:11.451Z,3.53
2023-05-13T19:17:40.623Z,2.67
2023-05-13T19:20:08.853Z,3.33
2023-05-13T19:22:36.190Z,2.60
2023-05-13T19:25:03.861Z,3.17
2023-05-13T19:27:31.912Z,2.50
2023-05-13T19:29:59.579Z,2.58
2023-05-13T19:32:26.919Z,3.50
2023-05-13T19:34:54.444Z,3.28
2023-05-13T19:37:21.913Z,3.65
2023-05-13T19:39:49.406Z,3.60
2023-05-13T19:42:16.624Z,3.47
2023-05-13T19:44:44.218Z,3.25
2023-05-13T19:47:11.529Z,3.17
2023-05-13T19:49:39.182Z,3.63
2023-05-13T19:52:07.153Z,3.40
2023-05-13T19:54:34.783Z,3.85
2023-05-13T19:57:02.039Z,3.70
2023-05-13T19:59:29.629Z,4.13
2023-05-13T20:01:56.867Z,3.65
2023-05-13T20:04:24.353Z,3.67
2023-05-13T20:06:51.508Z,3.15
2023-05-13T20:09:19.030Z,2.92
2023-05-13T20:11:46.200Z,3.42
2023-05-13T20:14:13.795Z,3.25
2023-05-13T20:16:41.694Z,3.53
2023-05-13T20:19:09.940Z,3.40
2023-05-13T20:21:37.255Z,2.72
2023-05-13T20:24:04.807Z,2.90
2023-05-13T20:26:34.732Z,3.38
2023-05-13T20:29:02.670Z,2.60
2023-05-13T20:31:30.156Z,2.50
2023-05-13T20:33:58.630Z,2.97
2023-05-13T20:36:26.963Z,2.78
2023-05-13T20:38:54.430Z,2.13
2023-05-13T20:41:21.876Z,3.05
2023-05-13T20:43:49.353Z,3.10
2023-05-13T20:46:17.260Z,2.33
2023-05-13T20:48:44.873Z,2.85
2023-05-13T20:51:12.346Z,2.47
2023-05-13T20:53:40.174Z,2.47
2023-05-13T20:56:09.991Z,3.10
2023-05-13T20:58:37.698Z,3.50
2023-05-13T21:01:05.021Z,3.08
2023-05-13T21:03:33.278Z,2.70
2023-05-13T21:06:00.578Z,2.63
2023-05-13T21:08:28.095Z,3.15
2023-05-13T21:10:56.468Z,3.20
2023-05-13T21:13:25.969Z,2.65
2023-05-13T21:15:53.372Z,2.53
2023-05-13T21:18:20.867Z,3.03
2023-05-13T21:20:48.095Z,3.03
2023-05-13T21:23:15.690Z,3.13
2023-05-13T21:25:43.082Z,2.85
2023-05-13T21:28:10.583Z,2.72
2023-05-13T21:30:37.806Z,2.92
2023-05-13T21:33:05.427Z,2.67
2023-05-13T21:35:32.655Z,2.10
2023-05-13T21:38:08.588Z,2.40
2023-05-13T21:40:39.081Z,2.47
2023-05-13T21:43:06.633Z,2.72
2023-05-13T21:45:33.844Z,2.38
2023-05-13T21:48:01.495Z,2.33
2023-05-13T21:50:28.802Z,2.03
2023-05-13T21:52:56.504Z,2.70
2023-05-13T21:55:24.241Z,2.60
2023-05-13T21:57:51.696Z,2.45
2023-05-13T22:00:19.447Z,2.58
2023-05-13T22:02:47.689Z,2.47
2023-05-13T22:05:15.205Z,2.72
2023-05-13T22:07:42.885Z,2.53
2023-05-13T22:10:10.574Z,2.65
2023-05-13T22:12:38.171Z,2.28
2023-05-13T22:15:06.443Z,2.35
2023-05-13T22:17:34.181Z,3.13
2023-05-13T22:20:01.664Z,2.55
2023-05-13T22:22:29.497Z,2.60
2023-05-13T22:24:56.832Z,2.67
2023-05-13T22:27:24.260Z,2.60
2023-05-13T22:29:51.540Z,3.25
2023-05-13T22:32:19.020Z,3.88
2023-05-13T22:34:46.188Z,3.25
2023-05-13T22:37:13.699Z,2.95
2023-05-13T22:39:41.028Z,2.30
2023-05-13T22:42:08.556Z,2.97
2023-05-13T22:44:35.745Z,2.85
2023-05-13T22:47:04.200Z,2.67
2023-05-13T22:49:31.506Z,2.63
2023-05-13T22:51:58.965Z,2.47
2023-05-13T22:54:26.238Z,3.65
2023-05-13T22:56:53.898Z,3.50
2023-05-13T22:59:21.108Z,3.92
2023-05-13T23:01:48.777Z,3.08
2023-05-13T23:04:16.058Z,2.40
2023-05-13T23:06:43.558Z,3.20
2023-05-13T23:09:11.143Z,3.17
2023-05-13T23:11:38.635Z,3.10
2023-05-13T23:14:05.902Z,3.30
2023-05-13T23:16:33.425Z,2.92
2023-05-13T23:19:01.098Z,3.30
2023-05-13T23:21:28.792Z,3.03
2023-05-13T23:23:56.102Z,3.13
2023-05-13T23:26:24.909Z,3.08
2023-05-13T23:28:52.106Z,3.35
2023-05-13T23:31:19.634Z,3.25
2023-05-13T23:33:46.922Z,3.85
2023-05-13T23:36:16.127Z,3.08
2023-05-13T23:38:43.298Z,3.90
2023-05-13T23:41:10.789Z,2.85
2023-05-13T23:43:37.958Z,3.22
2023-05-13T23:46:05.640Z,2.90
2023-05-13T23:48:32.875Z,2.75
2023-05-13T23:51:00.574Z,2.70
2023-05-13T23:53:27.740Z,3.10
2023-05-13T23:55:55.451Z,3.20
2023-05-13T23:58:22.643Z,2.75
